sensor_id;sensor_type;location;lat;lon;timestamp;pressure;altitude;pressure_sealevel;temperature;humidity
11987;BME280;6053;51.382;6.768;2023-05-22T00:00:10;100997.16;;;18.74;100.00
11987;BME280;6053;51.382;6.768;2023-05-22T00:02:40;100983.28;;;19.49;100.00
11987;BME280;6053;51.382;6.768;2023-05-22T00:05:13;100992.63;;;19.89;100.00
11987;BME280;6053;51.382;6.768;2023-05-22T00:07:44;100981.75;;;19.77;100.00
11987;BME280;6053;51.382;6.768;2023-05-22T00:10:13;100977.75;;;19.29;100.00
11987;BME280;6053;51.382;6.768;2023-05-22T00:12:41;100983.31;;;19.34;100.00
11987;BME280;6053;51.382;6.768;2023-05-22T00:15:11;100989.22;;;19.33;100.00
11987;BME280;6053;51.382;6.768;2023-05-22T00:17:39;100976.22;;;19.67;100.00
11987;BME280;6053;51.382;6.768;2023-05-22T00:20:09;100980.25;;;19.30;100.00
11987;BME280;6053;51.382;6.768;2023-05-22T00:22:39;100976.97;;;18.98;100.00
11987;BME280;6053;51.382;6.768;2023-05-22T00:25:09;100977.00;;;19.03;100.00
11987;BME280;6053;51.382;6.768;2023-05-22T00:27:38;100977.94;;;20.08;100.00
11987;BME280;6053;51.382;6.768;2023-05-22T00:30:08;100987.38;;;21.14;100.00
11987;BME280;6053;51.382;6.768;2023-05-22T00:32:38;100980.06;;;21.85;100.00
11987;BME280;6053;51.382;6.768;2023-05-22T00:35:08;100973.19;;;21.97;100.00
11987;BME280;6053;51.382;6.768;2023-05-22T00:37:38;100986.41;;;22.34;100.00
11987;BME280;6053;51.382;6.768;2023-05-22T00:40:08;100989.69;;;22.55;100.00
11987;BME280;6053;51.382;6.768;2023-05-22T00:42:36;100991.31;;;22.75;100.00
11987;BME280;6053;51.382;6.768;2023-05-22T00:45:06;100987.66;;;22.61;100.00
11987;BME280;6053;51.382;6.768;2023-05-22T00:47:35;100991.09;;;22.71;100.00
11987;BME280;6053;51.382;6.768;2023-05-22T00:50:04;100995.78;;;22.76;100.00
11987;BME280;6053;51.382;6.768;2023-05-22T00:52:34;100994.63;;;22.77;100.00
11987;BME280;6053;51.382;6.768;2023-05-22T00:55:07;100994.34;;;22.78;100.00
11987;BME280;6053;51.382;6.768;2023-05-22T00:57:37;100997.41;;;21.50;100.00
11987;BME280;6053;51.382;6.768;2023-05-22T01:00:09;100990.38;;;22.09;100.00
11987;BME280;6053;51.382;6.768;2023-05-22T01:02:38;100994.44;;;22.41;100.00
11987;BME280;6053;51.382;6.768;2023-05-22T01:05:10;101000.44;;;22.34;100.00
11987;BME280;6053;51.382;6.768;2023-05-22T01:07:44;100992.38;;;20.93;100.00
11987;BME280;6053;51.382;6.768;2023-05-22T01:10:14;100992.03;;;21.72;100.00
11987;BME280;6053;51.382;6.768;2023-05-22T01:12:51;100992.44;;;21.84;100.00
11987;BME280;6053;51.382;6.768;2023-05-22T01:15:30;100987.47;;;21.76;100.00
11987;BME280;6053;51.382;6.768;2023-05-22T01:18:05;100985.13;;;21.64;100.00
11987;BME280;6053;51.382;6.768;2023-05-22T01:20:42;100981.88;;;21.28;100.00
11987;BME280;6053;51.382;6.768;2023-05-22T01:23:47;100985.63;;;20.94;100.00
11987;BME280;6053;51.382;6.768;2023-05-22T01:26:42;100978.59;;;20.68;100.00
11987;BME280;6053;51.382;6.768;2023-05-22T01:29:30;100972.88;;;20.78;100.00
11987;BME280;6053;51.382;6.768;2023-05-22T01:32:09;100980.56;;;21.50;100.00
11987;BME280;6053;51.382;6.768;2023-05-22T01:34:44;100975.97;;;21.78;100.00
11987;BME280;6053;51.382;6.768;2023-05-22T01:37:14;100970.88;;;21.99;100.00
11987;BME280;6053;51.382;6.768;2023-05-22T01:39:44;100973.84;;;21.46;100.00
11987;BME280;6053;51.382;6.768;2023-05-22T01:42:13;100978.56;;;20.73;100.00
11987;BME280;6053;51.382;6.768;2023-05-22T01:44:42;100971.63;;;21.42;100.00
11987;BME280;6053;51.382;6.768;2023-05-22T01:47:12;100976.88;;;21.49;100.00
11987;BME280;6053;51.382;6.768;2023-05-22T01:49:41;100970.13;;;21.74;100.00
11987;BME280;6053;51.382;6.768;2023-05-22T01:52:14;100962.22;;;21.76;100.00
11987;BME280;6053;51.382;6.768;2023-05-22T01:54:50;100966.78;;;22.10;100.00
11987;BME280;6053;51.382;6.768;2023-05-22T01:57:26;100961.50;;;22.27;100.00
11987;BME280;6053;51.382;6.768;2023-05-22T02:00:02;100958.19;;;22.39;100.00
11987;BME280;6053;51.382;6.768;2023-05-22T02:02:38;100964.03;;;22.43;100.00
11987;BME280;6053;51.382;6.768;2023-05-22T02:05:10;100962.06;;;22.43;100.00
11987;BME280;6053;51.382;6.768;2023-05-22T02:07:41;100955.81;;;22.46;100.00
11987;BME280;6053;51.382;6.768;2023-05-22T02:10:11;100962.06;;;22.43;100.00
11987;BME280;6053;51.382;6.768;2023-05-22T02:12:40;100956.13;;;22.45;100.00
11987;BME280;6053;51.382;6.768;2023-05-22T02:15:09;100957.56;;;22.42;100.00
11987;BME280;6053;51.382;6.768;2023-05-22T02:17:39;100963.31;;;22.37;100.00
11987;BME280;6053;51.382;6.768;2023-05-22T02:20:10;100963.47;;;22.27;100.00
11987;BME280;6053;51.382;6.768;2023-05-22T02:22:41;100961.16;;;22.29;100.00
11987;BME280;6053;51.382;6.768;2023-05-22T02:25:11;100965.34;;;22.31;100.00
11987;BME280;6053;51.382;6.768;2023-05-22T02:27:41;100955.25;;;22.30;100.00
11987;BME280;6053;51.382;6.768;2023-05-22T02:30:11;100966.66;;;22.20;100.00
11987;BME280;6053;51.382;6.768;2023-05-22T02:32:41;100953.13;;;22.22;100.00
11987;BME280;6053;51.382;6.768;2023-05-22T02:35:10;100954.94;;;22.32;100.00
11987;BME280;6053;51.382;6.768;2023-05-22T02:37:39;100955.25;;;22.30;100.00
11987;BME280;6053;51.382;6.768;2023-05-22T02:40:08;100954.19;;;22.26;100.00
11987;BME280;6053;51.382;6.768;2023-05-22T02:42:37;100954.50;;;22.25;100.00
11987;BME280;6053;51.382;6.768;2023-05-22T02:45:07;100949.09;;;22.28;100.00
11987;BME280;6053;51.382;6.768;2023-05-22T02:47:36;100955.94;;;22.22;100.00
11987;BME280;6053;51.382;6.768;2023-05-22T02:50:07;100961.03;;;22.20;100.00
11987;BME280;6053;51.382;6.768;2023-05-22T02:52:35;100961.88;;;22.21;100.00
11987;BME280;6053;51.382;6.768;2023-05-22T02:55:06;100966.06;;;22.23;100.00
11987;BME280;6053;51.382;6.768;2023-05-22T02:57:35;100952.00;;;22.23;100.00
11987;BME280;6053;51.382;6.768;2023-05-22T03:00:04;100948.78;;;22.11;100.00
11987;BME280;6053;51.382;6.768;2023-05-22T03:02:34;100951.25;;;22.18;100.00
11987;BME280;6053;51.382;6.768;2023-05-22T03:05:03;100945.09;;;22.16;100.00
11987;BME280;6053;51.382;6.768;2023-05-22T03:07:33;100956.88;;;22.18;100.00
11987;BME280;6053;51.382;6.768;2023-05-22T03:10:02;100948.63;;;22.02;100.00
11987;BME280;6053;51.382;6.768;2023-05-22T03:12:30;100949.53;;;21.79;100.00
11987;BME280;6053;51.382;6.768;2023-05-22T03:14:59;100953.75;;;22.00;100.00
11987;BME280;6053;51.382;6.768;2023-05-22T03:17:28;100948.84;;;22.06;100.00
11987;BME280;6053;51.382;6.768;2023-05-22T03:19:56;100944.44;;;22.00;100.00
11987;BME280;6053;51.382;6.768;2023-05-22T03:22:25;100948.34;;;22.04;100.00
11987;BME280;6053;51.382;6.768;2023-05-22T03:24:55;100951.66;;;22.06;100.00
11987;BME280;6053;51.382;6.768;2023-05-22T03:27:23;100957.81;;;22.08;100.00
11987;BME280;6053;51.382;6.768;2023-05-22T03:29:52;100953.97;;;22.04;100.00
11987;BME280;6053;51.382;6.768;2023-05-22T03:32:21;100952.75;;;22.10;100.00
11987;BME280;6053;51.382;6.768;2023-05-22T03:34:49;100953.03;;;22.08;100.00
11987;BME280;6053;51.382;6.768;2023-05-22T03:37:18;100954.19;;;22.07;100.00
11987;BME280;6053;51.382;6.768;2023-05-22T03:39:46;100951.66;;;22.06;100.00
11987;BME280;6053;51.382;6.768;2023-05-22T03:42:16;100948.34;;;22.04;100.00
11987;BME280;6053;51.382;6.768;2023-05-22T03:44:45;100955.41;;;22.01;100.00
11987;BME280;6053;51.382;6.768;2023-05-22T03:47:15;100951.75;;;22.01;100.00
11987;BME280;6053;51.382;6.768;2023-05-22T03:49:44;100951.22;;;21.99;100.00
11987;BME280;6053;51.382;6.768;2023-05-22T03:52:13;100949.00;;;21.96;100.00
11987;BME280;6053;51.382;6.768;2023-05-22T03:54:41;100948.41;;;21.99;100.00
11987;BME280;6053;51.382;6.768;2023-05-22T03:57:10;100946.44;;;21.99;100.00
11987;BME280;6053;51.382;6.768;2023-05-22T03:59:40;100958.50;;;22.00;100.00
11987;BME280;6053;51.382;6.768;2023-05-22T04:02:08;100956.00;;;21.98;100.00
11987;BME280;6053;51.382;6.768;2023-05-22T04:04:39;100946.53;;;21.94;100.00
11987;BME280;6053;51.382;6.768;2023-05-22T04:07:07;100955.16;;;21.98;100.00
11987;BME280;6053;51.382;6.768;2023-05-22T04:09:39;100955.47;;;21.96;100.00
11987;BME280;6053;51.382;6.768;2023-05-22T04:12:08;100951.81;;;21.96;100.00
11987;BME280;6053;51.382;6.768;2023-05-22T04:14:39;100959.63;;;21.99;100.00
11987;BME280;6053;51.382;6.768;2023-05-22T04:17:07;100951.81;;;21.96;100.00
11987;BME280;6053;51.382;6.768;2023-05-22T04:19:37;100955.47;;;21.96;100.00
11987;BME280;6053;51.382;6.768;2023-05-22T04:22:06;100953.19;;;21.98;100.00
11987;BME280;6053;51.382;6.768;2023-05-22T04:24:34;100953.75;;;22.00;100.00
11987;BME280;6053;51.382;6.768;2023-05-22T04:27:06;100960.69;;;22.03;100.00
11987;BME280;6053;51.382;6.768;2023-05-22T04:29:34;100959.56;;;22.04;100.00
11987;BME280;6053;51.382;6.768;2023-05-22T04:32:05;100957.59;;;22.04;100.00
11987;BME280;6053;51.382;6.768;2023-05-22T04:34:36;100963.66;;;22.11;100.00
11987;BME280;6053;51.382;6.768;2023-05-22T04:37:05;100953.88;;;22.09;100.00
11987;BME280;6053;51.382;6.768;2023-05-22T04:39:33;100958.88;;;22.12;100.00
11987;BME280;6053;51.382;6.768;2023-05-22T04:42:02;100960.84;;;22.11;100.00
11987;BME280;6053;51.382;6.768;2023-05-22T04:44:32;100966.16;;;22.13;100.00
11987;BME280;6053;51.382;6.768;2023-05-22T04:47:01;100968.97;;;22.13;100.00
11987;BME280;6053;51.382;6.768;2023-05-22T04:49:36;100976.28;;;22.14;100.00
11987;BME280;6053;51.382;6.768;2023-05-22T04:52:05;100981.00;;;22.19;100.00
11987;BME280;6053;51.382;6.768;2023-05-22T04:54:34;100974.22;;;22.20;100.00
11987;BME280;6053;51.382;6.768;2023-05-22T04:57:02;100969.81;;;21.95;100.00
11987;BME280;6053;51.382;6.768;2023-05-22T04:59:32;100965.72;;;22.06;100.00
11987;BME280;6053;51.382;6.768;2023-05-22T05:02:04;100967.50;;;22.21;100.00
11987;BME280;6053;51.382;6.768;2023-05-22T05:04:34;100975.38;;;22.19;100.00
11987;BME280;6053;51.382;6.768;2023-05-22T05:07:03;100972.19;;;22.25;100.00
11987;BME280;6053;51.382;6.768;2023-05-22T05:09:33;100963.75;;;22.25;100.00
11987;BME280;6053;51.382;6.768;2023-05-22T05:12:02;100966.19;;;22.32;100.00
11987;BME280;6053;51.382;6.768;2023-05-22T05:14:32;100977.16;;;22.09;100.00
11987;BME280;6053;51.382;6.768;2023-05-22T05:17:01;100970.44;;;22.29;100.00
11987;BME280;6053;51.382;6.768;2023-05-22T05:19:30;100974.00;;;22.35;100.00
11987;BME280;6053;51.382;6.768;2023-05-22T05:22:04;100973.06;;;22.40;100.00
11987;BME280;6053;51.382;6.768;2023-05-22T05:24:33;100971.13;;;22.40;100.00
11987;BME280;6053;51.382;6.768;2023-05-22T05:27:02;100972.69;;;22.46;100.00
11987;BME280;6053;51.382;6.768;2023-05-22T05:29:30;100974.44;;;22.42;100.00
11987;BME280;6053;51.382;6.768;2023-05-22T05:31:59;100970.25;;;22.40;100.00
11987;BME280;6053;51.382;6.768;2023-05-22T05:34:28;100972.06;;;22.49;100.00
11987;BME280;6053;51.382;6.768;2023-05-22T05:36:56;100980.31;;;22.59;100.00
11987;BME280;6053;51.382;6.768;2023-05-22T05:39:27;100973.19;;;22.67;100.00
11987;BME280;6053;51.382;6.768;2023-05-22T05:41:55;100977.63;;;22.54;100.00
11987;BME280;6053;51.382;6.768;2023-05-22T05:44:24;100978.09;;;22.75;100.00
11987;BME280;6053;51.382;6.768;2023-05-22T05:46:53;100980.72;;;22.86;100.00
11987;BME280;6053;51.382;6.768;2023-05-22T05:49:22;100988.19;;;22.76;100.00
11987;BME280;6053;51.382;6.768;2023-05-22T05:51:50;100988.59;;;23.30;100.00
11987;BME280;6053;51.382;6.768;2023-05-22T05:54:19;100990.00;;;24.10;100.00
11987;BME280;6053;51.382;6.768;2023-05-22T05:56:49;100992.88;;;23.83;100.00
11987;BME280;6053;51.382;6.768;2023-05-22T05:59:17;100992.00;;;24.68;100.00
11987;BME280;6053;51.382;6.768;2023-05-22T06:01:45;100984.00;;;24.26;100.00
11987;BME280;6053;51.382;6.768;2023-05-22T06:04:14;100989.69;;;24.12;100.00
11987;BME280;6053;51.382;6.768;2023-05-22T06:06:42;100989.13;;;23.73;100.00
11987;BME280;6053;51.382;6.768;2023-05-22T06:09:10;100993.75;;;23.69;100.00
11987;BME280;6053;51.382;6.768;2023-05-22T06:11:39;100993.22;;;24.17;100.00
11987;BME280;6053;51.382;6.768;2023-05-22T06:14:08;100988.91;;;23.84;100.00
11987;BME280;6053;51.382;6.768;2023-05-22T06:16:37;100994.28;;;24.89;100.00
11987;BME280;6053;51.382;6.768;2023-05-22T06:19:05;100994.56;;;23.70;100.00
11987;BME280;6053;51.382;6.768;2023-05-22T06:21:33;100996.19;;;22.69;100.00
11987;BME280;6053;51.382;6.768;2023-05-22T06:24:02;100996.09;;;23.90;100.00
11987;BME280;6053;51.382;6.768;2023-05-22T06:26:31;100995.81;;;24.95;100.00
11987;BME280;6053;51.382;6.768;2023-05-22T06:28:59;101004.41;;;25.12;100.00
11987;BME280;6053;51.382;6.768;2023-05-22T06:31:28;101002.22;;;26.06;100.00
11987;BME280;6053;51.382;6.768;2023-05-22T06:33:58;101004.19;;;25.40;100.00
11987;BME280;6053;51.382;6.768;2023-05-22T06:36:26;101008.13;;;24.99;100.00
11987;BME280;6053;51.382;6.768;2023-05-22T06:38:54;101006.03;;;24.82;100.00
11987;BME280;6053;51.382;6.768;2023-05-22T06:41:23;101017.50;;;23.91;100.00
11987;BME280;6053;51.382;6.768;2023-05-22T06:43:52;101014.66;;;24.41;100.00
11987;BME280;6053;51.382;6.768;2023-05-22T06:46:20;101015.59;;;24.00;100.00
11987;BME280;6053;51.382;6.768;2023-05-22T06:48:53;101015.22;;;23.51;100.00
11987;BME280;6053;51.382;6.768;2023-05-22T06:51:21;101014.69;;;23.36;100.00
11987;BME280;6053;51.382;6.768;2023-05-22T06:53:50;101015.50;;;23.22;100.00
11987;BME280;6053;51.382;6.768;2023-05-22T06:56:18;101017.63;;;23.86;100.00
11987;BME280;6053;51.382;6.768;2023-05-22T06:58:48;101020.13;;;24.23;100.00
11987;BME280;6053;51.382;6.768;2023-05-22T07:01:17;101017.97;;;24.79;100.00
11987;BME280;6053;51.382;6.768;2023-05-22T07:03:45;101019.75;;;25.77;100.00
11987;BME280;6053;51.382;6.768;2023-05-22T07:06:15;101025.50;;;25.55;100.00
11987;BME280;6053;51.382;6.768;2023-05-22T07:08:44;101025.81;;;25.13;100.00
11987;BME280;6053;51.382;6.768;2023-05-22T07:11:12;101034.91;;;25.10;100.00
11987;BME280;6053;51.382;6.768;2023-05-22T07:13:40;101028.59;;;22.99;100.00
11987;BME280;6053;51.382;6.768;2023-05-22T07:16:09;101029.91;;;23.21;100.00
11987;BME280;6053;51.382;6.768;2023-05-22T07:18:37;101025.25;;;21.65;100.00
11987;BME280;6053;51.382;6.768;2023-05-22T07:21:06;101034.47;;;22.51;100.00
11987;BME280;6053;51.382;6.768;2023-05-22T07:23:35;101035.53;;;22.88;100.00
11987;BME280;6053;51.382;6.768;2023-05-22T07:26:05;101040.13;;;21.65;100.00
11987;BME280;6053;51.382;6.768;2023-05-22T07:28:33;101033.94;;;21.45;100.00
11987;BME280;6053;51.382;6.768;2023-05-22T07:31:02;101040.13;;;21.65;100.00
11987;BME280;6053;51.382;6.768;2023-05-22T07:33:30;101040.72;;;21.86;100.00
11987;BME280;6053;51.382;6.768;2023-05-22T07:35:58;101046.66;;;22.04;100.00
11987;BME280;6053;51.382;6.768;2023-05-22T07:38:27;101050.50;;;22.32;100.00
11987;BME280;6053;51.382;6.768;2023-05-22T07:40:56;101060.63;;;21.90;100.00
11987;BME280;6053;51.382;6.768;2023-05-22T07:43:24;101057.22;;;21.69;100.00
11987;BME280;6053;51.382;6.768;2023-05-22T07:45:53;101055.41;;;21.30;100.00
11987;BME280;6053;51.382;6.768;2023-05-22T07:48:21;101060.03;;;21.16;100.00
11987;BME280;6053;51.382;6.768;2023-05-22T07:50:49;101056.00;;;21.27;100.00
11987;BME280;6053;51.382;6.768;2023-05-22T07:53:18;101060.34;;;21.44;100.00
11987;BME280;6053;51.382;6.768;2023-05-22T07:55:46;101064.19;;;21.18;100.00
11987;BME280;6053;51.382;6.768;2023-05-22T07:58:16;101070.88;;;21.23;100.00
11987;BME280;6053;51.382;6.768;2023-05-22T08:00:45;101066.53;;;21.64;100.00
11987;BME280;6053;51.382;6.768;2023-05-22T08:03:13;101068.63;;;21.78;100.00
11987;BME280;6053;51.382;6.768;2023-05-22T08:05:43;101072.06;;;22.36;100.00
11987;BME280;6053;51.382;6.768;2023-05-22T08:08:12;101065.03;;;22.20;100.00
11987;BME280;6053;51.382;6.768;2023-05-22T08:10:40;101070.56;;;22.25;100.00
11987;BME280;6053;51.382;6.768;2023-05-22T08:13:30;101078.66;;;21.84;100.00
11987;BME280;6053;51.382;6.768;2023-05-22T08:15:58;101085.59;;;21.92;100.00
11987;BME280;6053;51.382;6.768;2023-05-22T08:18:28;101073.50;;;22.15;100.00
11987;BME280;6053;51.382;6.768;2023-05-22T08:20:56;101080.75;;;21.97;100.00
11987;BME280;6053;51.382;6.768;2023-05-22T08:23:26;101078.69;;;22.03;100.00
11987;BME280;6053;51.382;6.768;2023-05-22T08:25:54;101081.34;;;21.94;100.00
11987;BME280;6053;51.382;6.768;2023-05-22T08:28:23;101071.38;;;22.26;100.00
11987;BME280;6053;51.382;6.768;2023-05-22T08:30:52;101071.47;;;22.40;100.00
11987;BME280;6053;51.382;6.768;2023-05-22T08:33:21;101082.31;;;21.84;100.00
11987;BME280;6053;51.382;6.768;2023-05-22T08:35:49;101090.94;;;21.11;100.00
11987;BME280;6053;51.382;6.768;2023-05-22T08:38:17;101077.72;;;20.82;100.00
11987;BME280;6053;51.382;6.768;2023-05-22T08:40:47;101085.47;;;21.78;100.00
11987;BME280;6053;51.382;6.768;2023-05-22T08:43:18;101089.06;;;21.30;100.00
11987;BME280;6053;51.382;6.768;2023-05-22T08:45:54;101087.28;;;21.69;100.00
11987;BME280;6053;51.382;6.768;2023-05-22T08:48:24;101096.91;;;21.86;100.00
11987;BME280;6053;51.382;6.768;2023-05-22T08:50:57;101093.66;;;21.74;100.00
11987;BME280;6053;51.382;6.768;2023-05-22T08:53:27;101094.25;;;21.71;100.00
11987;BME280;6053;51.382;6.768;2023-05-22T08:55:56;101101.47;;;21.24;100.00
11987;BME280;6053;51.382;6.768;2023-05-22T08:58:25;101090.91;;;21.16;100.00
11987;BME280;6053;51.382;6.768;2023-05-22T09:00:55;101100.63;;;21.24;100.00
11987;BME280;6053;51.382;6.768;2023-05-22T09:03:26;101099.88;;;20.84;100.00
11987;BME280;6053;51.382;6.768;2023-05-22T09:05:59;101094.38;;;21.03;100.00
11987;BME280;6053;51.382;6.768;2023-05-22T09:08:27;101094.53;;;20.38;100.00
11987;BME280;6053;51.382;6.768;2023-05-22T09:10:56;101094.47;;;20.92;100.00
11987;BME280;6053;51.382;6.768;2023-05-22T09:13:25;101101.19;;;20.91;100.00
11987;BME280;6053;51.382;6.768;2023-05-22T09:15:59;101112.47;;;20.86;100.00
11987;BME280;6053;51.382;6.768;2023-05-22T09:18:35;101101.59;;;20.80;100.00
11987;BME280;6053;51.382;6.768;2023-05-22T09:21:04;101108.03;;;19.76;100.00
11987;BME280;6053;51.382;6.768;2023-05-22T09:23:53;101117.59;;;20.74;100.00
11987;BME280;6053;51.382;6.768;2023-05-22T09:26:21;101118.44;;;21.43;100.00
11987;BME280;6053;51.382;6.768;2023-05-22T09:28:53;101115.88;;;21.47;100.00
11987;BME280;6053;51.382;6.768;2023-05-22T09:31:24;101118.84;;;20.97;100.00
11987;BME280;6053;51.382;6.768;2023-05-22T09:33:54;101118.03;;;22.27;100.00
11987;BME280;6053;51.382;6.768;2023-05-22T09:36:29;101115.41;;;21.39;100.00
11987;BME280;6053;51.382;6.768;2023-05-22T09:38:59;101110.44;;;21.79;100.00
11987;BME280;6053;51.382;6.768;2023-05-22T09:41:29;101117.06;;;22.12;100.00
11987;BME280;6053;51.382;6.768;2023-05-22T09:43:58;101119.72;;;22.04;100.00
11987;BME280;6053;51.382;6.768;2023-05-22T09:46:29;101122.25;;;20.89;100.00
11987;BME280;6053;51.382;6.768;2023-05-22T09:49:00;101118.75;;;20.18;100.00
11987;BME280;6053;51.382;6.768;2023-05-22T09:51:29;101120.19;;;21.34;100.00
11987;BME280;6053;51.382;6.768;2023-05-22T09:54:02;101117.06;;;21.06;100.00
11987;BME280;6053;51.382;6.768;2023-05-22T09:56:35;101122.84;;;21.20;100.00
11987;BME280;6053;51.382;6.768;2023-05-22T09:59:08;101129.56;;;21.53;100.00
11987;BME280;6053;51.382;6.768;2023-05-22T10:01:38;101118.69;;;21.95;100.00
11987;BME280;6053;51.382;6.768;2023-05-22T10:04:12;101116.41;;;21.73;100.00
11987;BME280;6053;51.382;6.768;2023-05-22T10:06:42;101117.56;;;21.72;100.00
11987;BME280;6053;51.382;6.768;2023-05-22T10:09:17;101123.19;;;20.79;100.00
11987;BME280;6053;51.382;6.768;2023-05-22T10:11:49;101124.00;;;21.14;100.00
11987;BME280;6053;51.382;6.768;2023-05-22T10:14:19;101121.38;;;20.93;100.00
11987;BME280;6053;51.382;6.768;2023-05-22T10:16:49;101125.09;;;21.18;100.00
11987;BME280;6053;51.382;6.768;2023-05-22T10:19:18;101126.88;;;21.43;100.00
11987;BME280;6053;51.382;6.768;2023-05-22T10:21:47;101120.31;;;22.25;100.00
11987;BME280;6053;51.382;6.768;2023-05-22T10:24:17;101114.75;;;22.39;100.00
11987;BME280;6053;51.382;6.768;2023-05-22T10:26:45;101118.88;;;22.27;100.00
11987;BME280;6053;51.382;6.768;2023-05-22T10:29:19;101112.56;;;22.73;100.00
11987;BME280;6053;51.382;6.768;2023-05-22T10:31:59;101118.25;;;23.66;100.00
11987;BME280;6053;51.382;6.768;2023-05-22T10:34:38;101116.44;;;23.89;100.00
11987;BME280;6053;51.382;6.768;2023-05-22T10:37:20;101104.31;;;21.77;100.00
11987;BME280;6053;51.382;6.768;2023-05-22T10:40:00;101110.63;;;23.06;100.00
11987;BME280;6053;51.382;6.768;2023-05-22T10:42:30;101104.03;;;22.59;100.00
11987;BME280;6053;51.382;6.768;2023-05-22T10:45:00;101099.50;;;24.03;100.00
11987;BME280;6053;51.382;6.768;2023-05-22T10:47:32;101094.91;;;24.07;100.00
11987;BME280;6053;51.382;6.768;2023-05-22T10:50:07;101093.28;;;23.79;100.00
11987;BME280;6053;51.382;6.768;2023-05-22T10:52:36;101092.09;;;24.07;100.00
11987;BME280;6053;51.382;6.768;2023-05-22T10:55:06;101101.00;;;23.73;100.00
11987;BME280;6053;51.382;6.768;2023-05-22T10:57:37;101095.13;;;24.61;100.00
11987;BME280;6053;51.382;6.768;2023-05-22T11:00:11;101099.88;;;24.52;100.00
11987;BME280;6053;51.382;6.768;2023-05-22T11:02:44;101096.00;;;24.84;100.00
11987;BME280;6053;51.382;6.768;2023-05-22T11:05:35;101094.34;;;24.83;100.00
11987;BME280;6053;51.382;6.768;2023-05-22T11:08:46;101088.28;;;25.12;100.00
11987;BME280;6053;51.382;6.768;2023-05-22T11:11:14;101088.03;;;24.63;100.00
11987;BME280;6053;51.382;6.768;2023-05-22T11:13:42;101088.38;;;25.29;100.00
11987;BME280;6053;51.382;6.768;2023-05-22T11:16:11;101088.97;;;24.09;100.00
11987;BME280;6053;51.382;6.768;2023-05-22T11:18:42;101078.97;;;23.89;100.00
11987;BME280;6053;51.382;6.768;2023-05-22T11:21:11;101080.22;;;23.69;100.00
11987;BME280;6053;51.382;6.768;2023-05-22T11:23:40;101082.94;;;24.38;100.00
11987;BME280;6053;51.382;6.768;2023-05-22T11:26:20;101077.22;;;24.43;100.00
11987;BME280;6053;51.382;6.768;2023-05-22T11:28:53;101082.13;;;24.74;100.00
11987;BME280;6053;51.382;6.768;2023-05-22T11:31:22;101074.06;;;25.03;100.00
11987;BME280;6053;51.382;6.768;2023-05-22T11:33:53;101073.16;;;24.49;100.00
11987;BME280;6053;51.382;6.768;2023-05-22T11:36:22;101072.00;;;24.36;100.00
11987;BME280;6053;51.382;6.768;2023-05-22T11:38:56;101071.44;;;24.12;100.00
11987;BME280;6053;51.382;6.768;2023-05-22T11:41:31;101067.63;;;24.30;100.00
11987;BME280;6053;51.382;6.768;2023-05-22T11:44:00;101069.50;;;24.35;100.00
11987;BME280;6053;51.382;6.768;2023-05-22T11:46:29;101067.56;;;24.08;100.00
11987;BME280;6053;51.382;6.768;2023-05-22T11:48:58;101064.50;;;24.45;100.00
11987;BME280;6053;51.382;6.768;2023-05-22T11:51:27;101059.50;;;24.65;100.00
11987;BME280;6053;51.382;6.768;2023-05-22T11:53:56;101064.19;;;24.69;100.00
11987;BME280;6053;51.382;6.768;2023-05-22T11:56:24;101059.75;;;25.00;100.00
11987;BME280;6053;51.382;6.768;2023-05-22T11:58:53;101058.13;;;24.26;100.00
11987;BME280;6053;51.382;6.768;2023-05-22T12:01:21;101050.06;;;24.33;100.00
11987;BME280;6053;51.382;6.768;2023-05-22T12:03:49;101053.69;;;24.11;100.00
11987;BME280;6053;51.382;6.768;2023-05-22T12:06:19;101047.97;;;24.39;100.00
11987;BME280;6053;51.382;6.768;2023-05-22T12:08:48;101045.94;;;24.98;100.00
11987;BME280;6053;51.382;6.768;2023-05-22T12:11:16;101048.34;;;24.82;100.00
11987;BME280;6053;51.382;6.768;2023-05-22T12:13:45;101037.72;;;25.10;100.00
11987;BME280;6053;51.382;6.768;2023-05-22T12:16:20;101034.31;;;24.68;100.00
11987;BME280;6053;51.382;6.768;2023-05-22T12:18:51;101036.66;;;24.98;100.00
11987;BME280;6053;51.382;6.768;2023-05-22T12:21:21;101039.59;;;24.48;100.00
11987;BME280;6053;51.382;6.768;2023-05-22T12:23:50;101040.94;;;25.17;100.00
11987;BME280;6053;51.382;6.768;2023-05-22T12:26:19;101034.41;;;25.08;100.00
11987;BME280;6053;51.382;6.768;2023-05-22T12:28:51;101041.19;;;25.30;100.00
11987;BME280;6053;51.382;6.768;2023-05-22T12:31:20;101035.97;;;25.46;100.00
11987;BME280;6053;51.382;6.768;2023-05-22T12:33:52;101037.72;;;25.33;100.00
11987;BME280;6053;51.382;6.768;2023-05-22T12:36:32;101033.19;;;25.23;100.00
11987;BME280;6053;51.382;6.768;2023-05-22T12:39:01;101041.09;;;25.44;100.00
11987;BME280;6053;51.382;6.768;2023-05-22T12:41:34;101032.53;;;25.26;100.00
11987;BME280;6053;51.382;6.768;2023-05-22T12:44:03;101038.13;;;25.49;100.00
11987;BME280;6053;51.382;6.768;2023-05-22T12:46:32;101020.22;;;24.68;100.00
11987;BME280;6053;51.382;6.768;2023-05-22T12:49:01;101022.50;;;25.51;100.00
11987;BME280;6053;51.382;6.768;2023-05-22T12:51:31;101023.16;;;26.05;100.00
11987;BME280;6053;51.382;6.768;2023-05-22T12:54:00;101019.16;;;25.89;100.00
11987;BME280;6053;51.382;6.768;2023-05-22T12:56:29;101023.47;;;25.95;100.00
11987;BME280;6053;51.382;6.768;2023-05-22T12:58:58;101016.03;;;26.34;100.00
11987;BME280;6053;51.382;6.768;2023-05-22T13:01:27;101015.38;;;26.02;100.00
11987;BME280;6053;51.382;6.768;2023-05-22T13:03:55;101020.34;;;26.05;100.00
11987;BME280;6053;51.382;6.768;2023-05-22T13:06:23;101008.97;;;25.79;100.00